Time;durP1;ratioP1;P1;durP2;ratioP2;P2;SDS_P1;SDS_P2;PMS_P1;PMS_P2;Temp;Humidity;BMP_temperature;BMP_pressure;BME280_temperature;BME280_humidity;BME280_pressure;Samples;Min_cycle;Max_cycle;Signal;HPM_P1;HPM_P2
2023/12/30 00:06:55;;;;;;;20.50;16.35;;;;;;;20.61;51.33;100408.72;41190769;28;20062;-77
2023/12/30 00:26:55;;;;;;;19.95;16.27;;;;;;;20.55;51.32;100403.94;41189458;28;20062;-77
2023/12/30 00:46:56;;;;;;;19.90;15.30;;;;;;;20.54;51.52;100418.03;41198831;28;20133;-75
2023/12/30 01:06:56;;;;;;;21.23;15.88;;;;;;;20.53;51.57;100415.53;41367557;28;20053;-75
2023/12/30 01:26:56;;;;;;;19.20;14.57;;;;;;;20.51;51.67;100422.69;41396352;28;20057;-74
2023/12/30 01:46:58;;;;;;;19.15;14.85;;;;;;;20.47;51.65;100401.88;41300011;28;20034;-76
2023/12/30 02:06:59;;;;;;;18.70;14.57;;;;;;;20.44;51.33;100401.28;41213563;28;20046;-76
2023/12/30 02:26:59;;;;;;;18.42;14.55;;;;;;;20.41;51.40;100381.31;41374438;28;20046;-76
2023/12/30 02:47:00;;;;;;;17.85;13.80;;;;;;;20.40;51.69;100387.50;41351198;28;20058;-76
2023/12/30 03:07:00;;;;;;;17.15;13.25;;;;;;;20.33;51.58;100378.38;41386069;28;20041;-77
2023/12/30 03:27:01;;;;;;;15.23;12.85;;;;;;;20.33;51.10;100385.47;41366466;28;20042;-74
2023/12/30 03:47:01;;;;;;;15.77;12.50;;;;;;;20.30;51.63;100365.50;41356180;28;20045;-76
2023/12/30 04:07:01;;;;;;;13.95;11.52;;;;;;;20.25;51.78;100367.59;41365833;28;20069;-75
2023/12/30 04:27:02;;;;;;;14.45;11.13;;;;;;;20.26;51.29;100382.41;41340284;28;20053;-75
2023/12/30 04:47:03;;;;;;;13.35;10.95;;;;;;;20.21;51.88;100374.88;41356327;28;20132;-75
2023/12/30 05:07:04;;;;;;;14.98;9.98;;;;;;;20.14;51.39;100386.78;41375518;28;20049;-76
2023/12/30 05:27:04;;;;;;;11.63;10.00;;;;;;;20.75;50.11;100413.00;41382258;28;20045;-76
2023/12/30 05:47:05;;;;;;;11.48;9.30;;;;;;;20.93;49.87;100407.28;41386695;28;20526;-74
2023/12/30 06:07:05;;;;;;;11.15;9.18;;;;;;;21.09;49.40;100455.22;41368832;28;20070;-75
2023/12/30 06:27:05;;;;;;;12.93;8.52;;;;;;;21.06;49.40;100459.88;41360762;28;20428;-76
2023/12/30 06:47:06;;;;;;;10.95;8.65;;;;;;;21.21;50.09;100485.00;41262388;28;20046;-72
2023/12/30 07:07:06;;;;;;;10.05;8.48;;;;;;;21.36;49.87;100514.63;41349744;28;20050;-70
2023/12/30 07:27:07;;;;;;;9.90;8.40;;;;;;;21.46;49.83;100533.22;41344485;28;20097;-72
2023/12/30 07:47:07;;;;;;;30.88;11.73;;;;;;;21.65;51.26;100543.19;41304934;28;20058;-71
2023/12/30 08:07:07;;;;;;;20.58;10.48;;;;;;;21.63;51.34;100560.94;41345085;28;20042;-70
2023/12/30 08:27:11;;;;;;;13.02;10.20;;;;;;;21.78;51.16;100571.25;41364531;28;20129;-69
2023/12/30 08:47:12;;;;;;;13.52;10.00;;;;;;;21.67;50.63;100587.91;41239677;28;20506;-69
2023/12/30 09:07:13;;;;;;;14.95;10.45;;;;;;;21.72;50.58;100599.75;41364846;28;20054;-69
2023/12/30 09:27:14;;;;;;;15.25;11.85;;;;;;;21.67;50.97;100595.81;41315555;28;20149;-67
2023/12/30 09:47:15;;;;;;;13.85;10.63;;;;;;;21.75;50.74;100586.34;41285236;28;20042;-68
2023/12/30 10:07:16;;;;;;;12.90;10.70;;;;;;;21.83;51.25;100598.94;41286173;28;20421;-68
2023/12/30 10:27:16;;;;;;;22.17;17.58;;;;;;;18.84;38.23;100577.63;41242097;28;20065;-71
2023/12/30 10:47:21;;;;;;;39.17;17.38;;;;;;;20.91;42.90;100552.19;41343935;28;20604;-69
2023/12/30 11:07:28;;;;;;;35.38;17.02;;;;;;;22.00;48.17;100515.88;41404002;28;20057;-74
2023/12/30 11:27:30;;;;;;;36.92;16.73;;;;;;;22.34;48.74;100505.28;41418513;28;20042;-76
2023/12/30 11:47:31;;;;;;;38.10;22.02;;;;;;;22.30;51.46;100481.91;41347081;28;20147;-70
2023/12/30 12:07:32;;;;;;;28.00;18.80;;;;;;;22.53;52.14;100472.16;41337746;28;20132;-73
2023/12/30 12:27:35;;;;;;;26.20;16.50;;;;;;;22.63;51.63;100475.72;41368321;28;20141;-68
2023/12/30 12:47:35;;;;;;;21.65;15.25;;;;;;;22.59;51.16;100471.66;41327012;28;20685;-69
2023/12/30 13:07:38;;;;;;;23.20;14.27;;;;;;;22.51;50.38;100461.75;41234917;28;20039;-69
2023/12/30 13:27:38;;;;;;;19.90;8.75;;;;;;;21.45;41.83;100476.22;41376984;28;20054;-66
2023/12/30 14:07:44;;;;;;;11.73;8.23;;;;;;;22.19;49.77;100510.00;41366625;28;20042;-68
2023/12/30 14:27:45;;;;;;;14.30;8.00;;;;;;;21.99;50.71;100514.22;41359128;28;20041;-71
2023/12/30 14:47:46;;;;;;;11.77;7.50;;;;;;;21.91;48.89;100517.47;41330907;28;20173;-73
2023/12/30 15:07:46;;;;;;;12.18;7.22;;;;;;;21.79;49.70;100528.97;41365800;28;20090;-74
2023/12/30 15:27:51;;;;;;;12.63;6.82;;;;;;;21.72;49.96;100556.75;41376817;28;20038;-68
2023/12/30 15:47:52;;;;;;;9.00;6.72;;;;;;;21.68;49.69;100563.19;41303026;28;20053;-68
2023/12/30 16:07:53;;;;;;;11.73;7.13;;;;;;;21.41;49.87;100562.53;41237824;28;20060;-69
2023/12/30 16:27:54;;;;;;;23.23;14.90;;;;;;;20.82;44.45;100554.66;41319937;28;20054;-68
2023/12/30 16:47:55;;;;;;;15.98;10.95;;;;;;;21.37;48.99;100566.38;41339277;28;20070;-66
2023/12/30 17:07:57;;;;;;;12.40;10.00;;;;;;;21.50;50.53;100573.34;41358913;28;20042;-68
2023/12/30 17:27:58;;;;;;;15.60;10.27;;;;;;;21.55;51.09;100585.19;41347786;28;20043;-65
2023/12/30 17:47:59;;;;;;;14.88;9.60;;;;;;;21.58;51.31;100597.31;41201577;28;20466;-62
2023/12/30 18:28:19;;;;;;;33.03;17.52;;;;;;;21.49;51.95;100606.72;41317827;28;20065;-63
2023/12/30 18:48:19;;;;;;;48.35;23.15;;;;;;;21.41;52.07;100609.94;41212274;28;20058;-68
2023/12/30 19:08:21;;;;;;;45.03;21.10;;;;;;;21.39;52.51;100600.50;41231691;28;20099;-66
2023/12/30 19:28:23;;;;;;;37.40;17.38;;;;;;;21.31;52.27;100611.56;41382246;28;20033;-65
2023/12/30 19:48:24;;;;;;;34.17;16.30;;;;;;;21.37;53.37;100613.78;41370970;28;20112;-65
2023/12/30 20:08:26;;;;;;;30.38;14.43;;;;;;;21.32;52.94;100615.91;41269456;28;20070;-65
2023/12/30 20:28:28;;;;;;;32.67;15.50;;;;;;;21.26;53.47;100611.09;41323904;28;20046;-66
2023/12/30 20:48:29;;;;;;;33.47;16.23;;;;;;;21.10;51.79;100595.59;41311658;28;20074;-65
2023/12/30 21:08:30;;;;;;;31.40;16.17;;;;;;;21.06;52.53;100599.41;41322685;28;20053;-67
2023/12/30 21:28:32;;;;;;;31.13;15.15;;;;;;;21.01;51.57;100601.53;41316207;28;20081;-67
2023/12/30 21:48:33;;;;;;;25.45;13.93;;;;;;;20.98;52.42;100605.22;41346550;28;20042;-66
2023/12/30 22:08:34;;;;;;;21.05;13.13;;;;;;;20.89;51.97;100601.47;41361515;28;20045;-67
2023/12/30 22:28:35;;;;;;;18.65;12.52;;;;;;;20.83;52.27;100583.50;41348893;28;20042;-67
2023/12/30 22:48:36;;;;;;;18.48;12.65;;;;;;;20.82;52.59;100579.19;41332810;28;20417;-67
2023/12/30 23:08:36;;;;;;;17.77;12.02;;;;;;;20.75;52.36;100577.94;41335560;28;20078;-67
2023/12/30 23:28:37;;;;;;;17.60;11.45;;;;;;;20.71;52.92;100579.09;41305436;28;20048;-69
2023/12/30 23:48:37;;;;;;;16.35;11.55;;;;;;;20.66;53.03;100571.53;41319575;28;20145;-68
